sensor_id;sensor_type;location;lat;lon;timestamp;P1;durP1;ratioP1;P2;durP2;ratioP2
15699;SDS011;7950;42.744;23.174;2023-11-21T00:00:13;9.73;;;4.13;;
15699;SDS011;7950;42.744;23.174;2023-11-21T00:02:43;5.23;;;3.80;;
15699;SDS011;7950;42.744;23.174;2023-11-21T00:05:13;7.37;;;3.83;;
15699;SDS011;7950;42.744;23.174;2023-11-21T00:07:42;9.87;;;4.27;;
15699;SDS011;7950;42.744;23.174;2023-11-21T00:10:13;8.27;;;4.20;;
15699;SDS011;7950;42.744;23.174;2023-11-21T00:12:42;8.20;;;3.70;;
15699;SDS011;7950;42.744;23.174;2023-11-21T00:15:11;5.73;;;3.77;;
15699;SDS011;7950;42.744;23.174;2023-11-21T00:17:40;6.20;;;3.90;;
15699;SDS011;7950;42.744;23.174;2023-11-21T00:20:10;6.50;;;3.93;;
15699;SDS011;7950;42.744;23.174;2023-11-21T00:22:40;5.80;;;4.00;;
15699;SDS011;7950;42.744;23.174;2023-11-21T00:25:11;6.90;;;3.60;;
15699;SDS011;7950;42.744;23.174;2023-11-21T00:27:42;6.10;;;3.60;;
15699;SDS011;7950;42.744;23.174;2023-11-21T00:30:11;6.13;;;4.00;;
15699;SDS011;7950;42.744;23.174;2023-11-21T00:32:41;4.80;;;3.83;;
15699;SDS011;7950;42.744;23.174;2023-11-21T00:35:10;7.13;;;4.33;;
15699;SDS011;7950;42.744;23.174;2023-11-21T00:37:39;5.90;;;3.87;;
15699;SDS011;7950;42.744;23.174;2023-11-21T00:40:08;8.93;;;5.07;;
15699;SDS011;7950;42.744;23.174;2023-11-21T00:42:42;8.07;;;5.10;;
15699;SDS011;7950;42.744;23.174;2023-11-21T00:45:10;9.47;;;4.27;;
15699;SDS011;7950;42.744;23.174;2023-11-21T00:47:39;5.87;;;4.47;;
15699;SDS011;7950;42.744;23.174;2023-11-21T00:50:09;10.97;;;5.73;;
15699;SDS011;7950;42.744;23.174;2023-11-21T00:52:38;9.83;;;4.93;;
15699;SDS011;7950;42.744;23.174;2023-11-21T00:55:07;7.90;;;4.77;;
15699;SDS011;7950;42.744;23.174;2023-11-21T00:57:40;12.93;;;5.87;;
15699;SDS011;7950;42.744;23.174;2023-11-21T01:00:09;9.00;;;5.77;;
15699;SDS011;7950;42.744;23.174;2023-11-21T01:02:43;12.97;;;5.57;;
15699;SDS011;7950;42.744;23.174;2023-11-21T01:05:13;11.73;;;5.97;;
15699;SDS011;7950;42.744;23.174;2023-11-21T01:07:41;9.70;;;5.60;;
15699;SDS011;7950;42.744;23.174;2023-11-21T01:10:10;12.70;;;6.00;;
15699;SDS011;7950;42.744;23.174;2023-11-21T01:12:41;9.57;;;5.40;;
15699;SDS011;7950;42.744;23.174;2023-11-21T01:15:09;9.37;;;5.50;;
15699;SDS011;7950;42.744;23.174;2023-11-21T01:17:39;6.90;;;5.23;;
15699;SDS011;7950;42.744;23.174;2023-11-21T01:20:09;8.93;;;5.30;;
15699;SDS011;7950;42.744;23.174;2023-11-21T01:22:40;6.73;;;4.50;;
15699;SDS011;7950;42.744;23.174;2023-11-21T01:25:10;9.43;;;5.33;;
15699;SDS011;7950;42.744;23.174;2023-11-21T01:27:42;7.40;;;4.93;;
15699;SDS011;7950;42.744;23.174;2023-11-21T01:30:11;9.13;;;6.20;;
15699;SDS011;7950;42.744;23.174;2023-11-21T01:32:40;11.63;;;7.07;;
15699;SDS011;7950;42.744;23.174;2023-11-21T01:35:09;7.53;;;5.27;;
15699;SDS011;7950;42.744;23.174;2023-11-21T01:37:38;6.13;;;5.17;;
15699;SDS011;7950;42.744;23.174;2023-11-21T01:40:07;9.63;;;4.73;;
15699;SDS011;7950;42.744;23.174;2023-11-21T01:42:40;8.43;;;5.23;;
15699;SDS011;7950;42.744;23.174;2023-11-21T01:45:11;9.30;;;5.70;;
15699;SDS011;7950;42.744;23.174;2023-11-21T01:47:41;9.90;;;6.00;;
15699;SDS011;7950;42.744;23.174;2023-11-21T01:50:13;8.97;;;6.00;;
15699;SDS011;7950;42.744;23.174;2023-11-21T01:52:45;9.30;;;5.67;;
15699;SDS011;7950;42.744;23.174;2023-11-21T01:55:15;7.97;;;5.60;;
15699;SDS011;7950;42.744;23.174;2023-11-21T01:57:55;8.57;;;5.73;;
15699;SDS011;7950;42.744;23.174;2023-11-21T02:00:24;11.30;;;6.80;;
15699;SDS011;7950;42.744;23.174;2023-11-21T02:02:56;8.33;;;6.10;;
15699;SDS011;7950;42.744;23.174;2023-11-21T02:05:26;10.43;;;5.97;;
15699;SDS011;7950;42.744;23.174;2023-11-21T02:07:56;7.30;;;5.53;;
15699;SDS011;7950;42.744;23.174;2023-11-21T02:10:25;9.60;;;6.00;;
15699;SDS011;7950;42.744;23.174;2023-11-21T02:12:53;19.70;;;9.83;;
15699;SDS011;7950;42.744;23.174;2023-11-21T02:15:25;12.07;;;6.57;;
15699;SDS011;7950;42.744;23.174;2023-11-21T02:17:55;19.67;;;9.57;;
15699;SDS011;7950;42.744;23.174;2023-11-21T02:20:25;12.33;;;6.83;;
15699;SDS011;7950;42.744;23.174;2023-11-21T02:22:57;8.90;;;5.73;;
15699;SDS011;7950;42.744;23.174;2023-11-21T02:25:28;11.80;;;7.07;;
15699;SDS011;7950;42.744;23.174;2023-11-21T02:27:59;8.97;;;6.50;;
15699;SDS011;7950;42.744;23.174;2023-11-21T02:30:29;15.17;;;8.90;;
15699;SDS011;7950;42.744;23.174;2023-11-21T02:32:59;10.53;;;6.90;;
15699;SDS011;7950;42.744;23.174;2023-11-21T02:35:29;11.53;;;6.80;;
15699;SDS011;7950;42.744;23.174;2023-11-21T02:38:00;9.73;;;6.73;;
15699;SDS011;7950;42.744;23.174;2023-11-21T02:40:29;9.43;;;6.70;;
15699;SDS011;7950;42.744;23.174;2023-11-21T02:42:58;9.00;;;5.93;;
15699;SDS011;7950;42.744;23.174;2023-11-21T02:45:27;13.97;;;6.67;;
15699;SDS011;7950;42.744;23.174;2023-11-21T02:47:55;9.40;;;6.93;;
15699;SDS011;7950;42.744;23.174;2023-11-21T02:50:25;11.53;;;7.00;;
15699;SDS011;7950;42.744;23.174;2023-11-21T02:52:54;10.87;;;6.80;;
15699;SDS011;7950;42.744;23.174;2023-11-21T02:55:28;12.23;;;7.00;;
15699;SDS011;7950;42.744;23.174;2023-11-21T02:57:57;13.47;;;8.93;;
15699;SDS011;7950;42.744;23.174;2023-11-21T03:00:26;10.37;;;6.93;;
15699;SDS011;7950;42.744;23.174;2023-11-21T03:02:55;9.00;;;6.23;;
15699;SDS011;7950;42.744;23.174;2023-11-21T03:05:24;9.07;;;6.27;;
15699;SDS011;7950;42.744;23.174;2023-11-21T03:07:56;11.07;;;6.03;;
15699;SDS011;7950;42.744;23.174;2023-11-21T03:10:24;8.17;;;6.00;;
15699;SDS011;7950;42.744;23.174;2023-11-21T03:12:55;9.70;;;5.63;;
15699;SDS011;7950;42.744;23.174;2023-11-21T03:15:24;10.43;;;6.47;;
15699;SDS011;7950;42.744;23.174;2023-11-21T03:17:53;11.00;;;8.40;;
15699;SDS011;7950;42.744;23.174;2023-11-21T03:20:23;12.40;;;7.80;;
15699;SDS011;7950;42.744;23.174;2023-11-21T03:22:52;11.20;;;6.53;;
15699;SDS011;7950;42.744;23.174;2023-11-21T03:25:21;9.17;;;5.63;;
15699;SDS011;7950;42.744;23.174;2023-11-21T03:27:51;9.40;;;5.83;;
15699;SDS011;7950;42.744;23.174;2023-11-21T03:30:21;8.80;;;5.07;;
15699;SDS011;7950;42.744;23.174;2023-11-21T03:32:50;10.60;;;6.03;;
15699;SDS011;7950;42.744;23.174;2023-11-21T03:35:19;12.10;;;7.80;;
15699;SDS011;7950;42.744;23.174;2023-11-21T03:37:48;9.97;;;6.73;;
15699;SDS011;7950;42.744;23.174;2023-11-21T03:40:17;8.97;;;6.13;;
15699;SDS011;7950;42.744;23.174;2023-11-21T03:42:47;11.93;;;6.70;;
15699;SDS011;7950;42.744;23.174;2023-11-21T03:45:17;9.47;;;5.53;;
15699;SDS011;7950;42.744;23.174;2023-11-21T03:47:47;7.07;;;5.40;;
15699;SDS011;7950;42.744;23.174;2023-11-21T03:50:16;8.57;;;6.10;;
15699;SDS011;7950;42.744;23.174;2023-11-21T03:52:44;9.23;;;6.80;;
15699;SDS011;7950;42.744;23.174;2023-11-21T03:55:13;8.80;;;5.83;;
15699;SDS011;7950;42.744;23.174;2023-11-21T03:57:43;12.57;;;7.27;;
15699;SDS011;7950;42.744;23.174;2023-11-21T04:00:12;10.00;;;6.83;;
15699;SDS011;7950;42.744;23.174;2023-11-21T04:02:42;9.87;;;5.80;;
15699;SDS011;7950;42.744;23.174;2023-11-21T04:05:12;7.93;;;5.50;;
15699;SDS011;7950;42.744;23.174;2023-11-21T04:07:41;11.27;;;5.50;;
15699;SDS011;7950;42.744;23.174;2023-11-21T04:10:10;10.77;;;5.27;;
15699;SDS011;7950;42.744;23.174;2023-11-21T04:12:39;8.97;;;5.00;;
15699;SDS011;7950;42.744;23.174;2023-11-21T04:15:09;8.60;;;5.03;;
15699;SDS011;7950;42.744;23.174;2023-11-21T04:17:39;9.00;;;5.33;;
15699;SDS011;7950;42.744;23.174;2023-11-21T04:20:09;9.00;;;5.93;;
15699;SDS011;7950;42.744;23.174;2023-11-21T04:22:39;7.97;;;5.50;;
15699;SDS011;7950;42.744;23.174;2023-11-21T04:25:11;8.90;;;5.27;;
15699;SDS011;7950;42.744;23.174;2023-11-21T04:27:43;8.50;;;4.87;;
15699;SDS011;7950;42.744;23.174;2023-11-21T04:30:13;8.70;;;5.47;;
15699;SDS011;7950;42.744;23.174;2023-11-21T04:32:42;9.37;;;5.67;;
15699;SDS011;7950;42.744;23.174;2023-11-21T04:35:11;8.20;;;4.97;;
15699;SDS011;7950;42.744;23.174;2023-11-21T04:37:43;12.83;;;6.93;;
15699;SDS011;7950;42.744;23.174;2023-11-21T04:40:11;10.83;;;6.03;;
15699;SDS011;7950;42.744;23.174;2023-11-21T04:42:40;9.93;;;5.47;;
15699;SDS011;7950;42.744;23.174;2023-11-21T04:45:09;7.87;;;5.83;;
15699;SDS011;7950;42.744;23.174;2023-11-21T04:47:39;9.37;;;5.37;;
15699;SDS011;7950;42.744;23.174;2023-11-21T04:50:08;10.93;;;6.13;;
15699;SDS011;7950;42.744;23.174;2023-11-21T04:52:38;11.03;;;6.33;;
15699;SDS011;7950;42.744;23.174;2023-11-21T04:55:09;12.73;;;6.40;;
15699;SDS011;7950;42.744;23.174;2023-11-21T04:57:38;8.47;;;6.40;;
15699;SDS011;7950;42.744;23.174;2023-11-21T05:00:09;9.43;;;6.87;;
15699;SDS011;7950;42.744;23.174;2023-11-21T05:02:39;9.90;;;6.47;;
15699;SDS011;7950;42.744;23.174;2023-11-21T05:05:11;13.23;;;9.23;;
15699;SDS011;7950;42.744;23.174;2023-11-21T05:07:41;10.40;;;6.77;;
15699;SDS011;7950;42.744;23.174;2023-11-21T05:10:11;11.43;;;6.50;;
15699;SDS011;7950;42.744;23.174;2023-11-21T05:12:41;11.53;;;7.60;;
15699;SDS011;7950;42.744;23.174;2023-11-21T05:15:12;10.87;;;7.40;;
15699;SDS011;7950;42.744;23.174;2023-11-21T05:17:44;10.10;;;7.00;;
15699;SDS011;7950;42.744;23.174;2023-11-21T05:20:14;8.77;;;7.03;;
15699;SDS011;7950;42.744;23.174;2023-11-21T05:22:47;11.17;;;7.30;;
15699;SDS011;7950;42.744;23.174;2023-11-21T05:25:18;17.00;;;10.20;;
15699;SDS011;7950;42.744;23.174;2023-11-21T05:27:46;13.27;;;8.23;;
15699;SDS011;7950;42.744;23.174;2023-11-21T05:30:16;14.33;;;9.30;;
15699;SDS011;7950;42.744;23.174;2023-11-21T05:32:44;12.03;;;8.90;;
15699;SDS011;7950;42.744;23.174;2023-11-21T05:35:14;12.20;;;9.30;;
15699;SDS011;7950;42.744;23.174;2023-11-21T05:37:44;12.43;;;8.47;;
15699;SDS011;7950;42.744;23.174;2023-11-21T05:40:14;9.83;;;7.80;;
15699;SDS011;7950;42.744;23.174;2023-11-21T05:42:44;11.30;;;8.20;;
15699;SDS011;7950;42.744;23.174;2023-11-21T05:45:14;17.80;;;11.23;;
15699;SDS011;7950;42.744;23.174;2023-11-21T05:47:45;13.57;;;8.63;;
15699;SDS011;7950;42.744;23.174;2023-11-21T05:50:15;11.13;;;8.03;;
15699;SDS011;7950;42.744;23.174;2023-11-21T05:52:45;10.57;;;8.80;;
15699;SDS011;7950;42.744;23.174;2023-11-21T05:55:16;12.97;;;10.80;;
15699;SDS011;7950;42.744;23.174;2023-11-21T05:57:47;17.67;;;10.60;;
15699;SDS011;7950;42.744;23.174;2023-11-21T06:00:16;9.90;;;7.23;;
15699;SDS011;7950;42.744;23.174;2023-11-21T06:02:48;10.10;;;7.20;;
15699;SDS011;7950;42.744;23.174;2023-11-21T06:05:20;10.20;;;7.07;;
15699;SDS011;7950;42.744;23.174;2023-11-21T06:07:52;11.23;;;7.60;;
15699;SDS011;7950;42.744;23.174;2023-11-21T06:10:23;10.27;;;7.70;;
15699;SDS011;7950;42.744;23.174;2023-11-21T06:12:53;13.50;;;8.67;;
15699;SDS011;7950;42.744;23.174;2023-11-21T06:15:29;14.53;;;9.67;;
15699;SDS011;7950;42.744;23.174;2023-11-21T06:17:58;10.63;;;8.73;;
15699;SDS011;7950;42.744;23.174;2023-11-21T06:20:26;11.23;;;7.80;;
15699;SDS011;7950;42.744;23.174;2023-11-21T06:22:55;11.57;;;8.20;;
15699;SDS011;7950;42.744;23.174;2023-11-21T06:25:24;11.77;;;7.60;;
15699;SDS011;7950;42.744;23.174;2023-11-21T06:27:55;19.23;;;12.03;;
15699;SDS011;7950;42.744;23.174;2023-11-21T06:30:24;21.40;;;14.00;;
15699;SDS011;7950;42.744;23.174;2023-11-21T06:32:53;16.83;;;11.90;;
15699;SDS011;7950;42.744;23.174;2023-11-21T06:35:22;14.67;;;9.87;;
15699;SDS011;7950;42.744;23.174;2023-11-21T06:37:51;15.20;;;10.73;;
15699;SDS011;7950;42.744;23.174;2023-11-21T06:40:20;18.83;;;11.90;;
15699;SDS011;7950;42.744;23.174;2023-11-21T06:42:49;15.10;;;9.73;;
15699;SDS011;7950;42.744;23.174;2023-11-21T06:45:19;16.37;;;11.53;;
15699;SDS011;7950;42.744;23.174;2023-11-21T06:47:48;15.67;;;11.70;;
15699;SDS011;7950;42.744;23.174;2023-11-21T06:50:17;18.87;;;11.87;;
15699;SDS011;7950;42.744;23.174;2023-11-21T06:52:46;15.73;;;11.80;;
15699;SDS011;7950;42.744;23.174;2023-11-21T06:55:15;13.33;;;10.30;;
15699;SDS011;7950;42.744;23.174;2023-11-21T06:57:44;13.87;;;10.60;;
15699;SDS011;7950;42.744;23.174;2023-11-21T07:00:15;21.23;;;12.20;;
15699;SDS011;7950;42.744;23.174;2023-11-21T07:02:47;24.33;;;16.50;;
15699;SDS011;7950;42.744;23.174;2023-11-21T07:05:16;18.87;;;14.50;;
15699;SDS011;7950;42.744;23.174;2023-11-21T07:07:48;19.43;;;14.47;;
15699;SDS011;7950;42.744;23.174;2023-11-21T07:10:20;29.83;;;22.77;;
15699;SDS011;7950;42.744;23.174;2023-11-21T07:12:49;20.03;;;15.13;;
15699;SDS011;7950;42.744;23.174;2023-11-21T07:15:18;30.43;;;24.90;;
15699;SDS011;7950;42.744;23.174;2023-11-21T07:17:48;21.00;;;13.93;;
15699;SDS011;7950;42.744;23.174;2023-11-21T07:20:17;18.47;;;12.57;;
15699;SDS011;7950;42.744;23.174;2023-11-21T07:22:46;21.77;;;15.97;;
15699;SDS011;7950;42.744;23.174;2023-11-21T07:25:15;27.93;;;18.00;;
15699;SDS011;7950;42.744;23.174;2023-11-21T07:27:43;26.80;;;17.43;;
15699;SDS011;7950;42.744;23.174;2023-11-21T07:30:12;53.27;;;37.47;;
15699;SDS011;7950;42.744;23.174;2023-11-21T07:32:42;27.83;;;20.07;;
15699;SDS011;7950;42.744;23.174;2023-11-21T07:35:14;21.33;;;14.73;;
15699;SDS011;7950;42.744;23.174;2023-11-21T07:37:43;22.90;;;14.93;;
15699;SDS011;7950;42.744;23.174;2023-11-21T07:40:14;27.77;;;19.87;;
15699;SDS011;7950;42.744;23.174;2023-11-21T07:42:43;40.80;;;30.67;;
15699;SDS011;7950;42.744;23.174;2023-11-21T07:45:12;28.60;;;21.33;;
15699;SDS011;7950;42.744;23.174;2023-11-21T07:47:41;29.23;;;19.73;;
15699;SDS011;7950;42.744;23.174;2023-11-21T07:50:10;25.37;;;15.53;;
15699;SDS011;7950;42.744;23.174;2023-11-21T07:52:41;24.87;;;15.37;;
15699;SDS011;7950;42.744;23.174;2023-11-21T07:55:10;20.23;;;13.43;;
15699;SDS011;7950;42.744;23.174;2023-11-21T07:57:40;25.30;;;14.00;;
15699;SDS011;7950;42.744;23.174;2023-11-21T08:00:09;23.63;;;13.47;;
15699;SDS011;7950;42.744;23.174;2023-11-21T08:02:41;20.97;;;14.17;;
15699;SDS011;7950;42.744;23.174;2023-11-21T08:05:12;25.07;;;14.37;;
15699;SDS011;7950;42.744;23.174;2023-11-21T08:07:55;22.20;;;12.83;;
15699;SDS011;7950;42.744;23.174;2023-11-21T08:10:23;21.77;;;14.40;;
15699;SDS011;7950;42.744;23.174;2023-11-21T08:12:52;26.20;;;13.43;;
15699;SDS011;7950;42.744;23.174;2023-11-21T08:15:21;24.17;;;14.77;;
15699;SDS011;7950;42.744;23.174;2023-11-21T08:17:51;29.93;;;15.27;;
15699;SDS011;7950;42.744;23.174;2023-11-21T08:20:20;19.77;;;12.87;;
15699;SDS011;7950;42.744;23.174;2023-11-21T08:22:49;19.93;;;12.60;;
15699;SDS011;7950;42.744;23.174;2023-11-21T08:25:20;31.57;;;16.00;;
15699;SDS011;7950;42.744;23.174;2023-11-21T08:27:49;28.07;;;15.57;;
15699;SDS011;7950;42.744;23.174;2023-11-21T08:30:18;23.50;;;14.40;;
15699;SDS011;7950;42.744;23.174;2023-11-21T08:32:50;24.33;;;14.80;;
15699;SDS011;7950;42.744;23.174;2023-11-21T08:35:20;25.10;;;14.50;;
15699;SDS011;7950;42.744;23.174;2023-11-21T08:37:50;17.47;;;13.27;;
15699;SDS011;7950;42.744;23.174;2023-11-21T08:40:22;17.87;;;11.63;;
15699;SDS011;7950;42.744;23.174;2023-11-21T08:42:51;19.67;;;12.40;;
15699;SDS011;7950;42.744;23.174;2023-11-21T08:45:21;17.77;;;12.30;;
15699;SDS011;7950;42.744;23.174;2023-11-21T08:47:50;17.30;;;12.67;;
15699;SDS011;7950;42.744;23.174;2023-11-21T08:50:19;19.37;;;11.93;;
15699;SDS011;7950;42.744;23.174;2023-11-21T08:52:47;23.57;;;14.50;;
15699;SDS011;7950;42.744;23.174;2023-11-21T08:55:18;40.07;;;23.30;;
15699;SDS011;7950;42.744;23.174;2023-11-21T08:57:48;47.03;;;26.80;;
15699;SDS011;7950;42.744;23.174;2023-11-21T09:00:17;39.47;;;22.80;;
15699;SDS011;7950;42.744;23.174;2023-11-21T09:02:46;16.30;;;12.10;;
15699;SDS011;7950;42.744;23.174;2023-11-21T09:05:15;18.03;;;12.03;;
15699;SDS011;7950;42.744;23.174;2023-11-21T09:07:44;17.67;;;12.73;;
15699;SDS011;7950;42.744;23.174;2023-11-21T09:10:15;17.23;;;13.37;;
15699;SDS011;7950;42.744;23.174;2023-11-21T09:12:44;18.03;;;12.83;;
15699;SDS011;7950;42.744;23.174;2023-11-21T09:15:14;18.87;;;13.50;;
15699;SDS011;7950;42.744;23.174;2023-11-21T09:17:42;24.87;;;16.20;;
15699;SDS011;7950;42.744;23.174;2023-11-21T09:20:12;23.43;;;16.37;;
15699;SDS011;7950;42.744;23.174;2023-11-21T09:22:41;26.30;;;17.00;;
15699;SDS011;7950;42.744;23.174;2023-11-21T09:25:11;22.03;;;14.87;;
15699;SDS011;7950;42.744;23.174;2023-11-21T09:27:40;17.67;;;13.43;;
15699;SDS011;7950;42.744;23.174;2023-11-21T09:30:09;19.47;;;13.67;;
15699;SDS011;7950;42.744;23.174;2023-11-21T09:32:42;17.27;;;12.50;;
15699;SDS011;7950;42.744;23.174;2023-11-21T09:35:12;18.30;;;13.00;;
15699;SDS011;7950;42.744;23.174;2023-11-21T09:37:42;15.97;;;11.90;;
15699;SDS011;7950;42.744;23.174;2023-11-21T09:40:15;16.40;;;12.53;;
15699;SDS011;7950;42.744;23.174;2023-11-21T09:42:52;16.00;;;12.30;;
15699;SDS011;7950;42.744;23.174;2023-11-21T09:45:27;15.87;;;11.80;;
15699;SDS011;7950;42.744;23.174;2023-11-21T09:47:59;16.57;;;10.93;;
15699;SDS011;7950;42.744;23.174;2023-11-21T09:50:29;16.33;;;11.10;;
15699;SDS011;7950;42.744;23.174;2023-11-21T09:53:03;14.43;;;10.00;;
15699;SDS011;7950;42.744;23.174;2023-11-21T09:55:42;19.70;;;13.83;;
15699;SDS011;7950;42.744;23.174;2023-11-21T09:58:12;30.77;;;17.63;;
15699;SDS011;7950;42.744;23.174;2023-11-21T10:00:42;12.13;;;9.53;;
15699;SDS011;7950;42.744;23.174;2023-11-21T10:03:14;14.77;;;11.30;;
15699;SDS011;7950;42.744;23.174;2023-11-21T10:05:44;12.50;;;9.70;;
15699;SDS011;7950;42.744;23.174;2023-11-21T10:08:13;12.00;;;8.57;;
15699;SDS011;7950;42.744;23.174;2023-11-21T10:10:43;14.90;;;10.30;;
15699;SDS011;7950;42.744;23.174;2023-11-21T10:13:15;12.03;;;9.93;;
15699;SDS011;7950;42.744;23.174;2023-11-21T10:15:48;15.03;;;11.40;;
15699;SDS011;7950;42.744;23.174;2023-11-21T10:18:21;14.80;;;11.63;;
15699;SDS011;7950;42.744;23.174;2023-11-21T10:20:53;21.63;;;16.40;;
15699;SDS011;7950;42.744;23.174;2023-11-21T10:23:23;22.40;;;16.43;;
15699;SDS011;7950;42.744;23.174;2023-11-21T10:25:52;20.17;;;15.10;;
15699;SDS011;7950;42.744;23.174;2023-11-21T10:28:30;20.07;;;14.67;;
15699;SDS011;7950;42.744;23.174;2023-11-21T10:31:06;21.30;;;15.17;;
15699;SDS011;7950;42.744;23.174;2023-11-21T10:33:37;26.27;;;15.53;;
15699;SDS011;7950;42.744;23.174;2023-11-21T10:36:06;20.17;;;13.37;;
15699;SDS011;7950;42.744;23.174;2023-11-21T10:38:42;23.53;;;14.73;;
15699;SDS011;7950;42.744;23.174;2023-11-21T10:41:13;22.73;;;15.33;;
15699;SDS011;7950;42.744;23.174;2023-11-21T10:43:43;29.03;;;15.90;;
15699;SDS011;7950;42.744;23.174;2023-11-21T10:46:12;19.77;;;14.57;;
15699;SDS011;7950;42.744;23.174;2023-11-21T10:48:43;21.17;;;14.40;;
15699;SDS011;7950;42.744;23.174;2023-11-21T10:51:13;19.93;;;14.00;;
15699;SDS011;7950;42.744;23.174;2023-11-21T10:53:42;15.23;;;11.77;;
15699;SDS011;7950;42.744;23.174;2023-11-21T10:56:14;17.77;;;12.80;;
15699;SDS011;7950;42.744;23.174;2023-11-21T10:58:48;17.10;;;13.20;;
15699;SDS011;7950;42.744;23.174;2023-11-21T11:01:18;17.43;;;12.23;;
15699;SDS011;7950;42.744;23.174;2023-11-21T11:03:50;26.03;;;18.60;;
15699;SDS011;7950;42.744;23.174;2023-11-21T11:06:21;22.93;;;14.90;;
15699;SDS011;7950;42.744;23.174;2023-11-21T11:08:53;21.17;;;14.53;;
15699;SDS011;7950;42.744;23.174;2023-11-21T11:11:23;21.67;;;14.40;;
15699;SDS011;7950;42.744;23.174;2023-11-21T11:13:53;22.27;;;15.63;;
15699;SDS011;7950;42.744;23.174;2023-11-21T11:16:25;20.57;;;13.77;;
15699;SDS011;7950;42.744;23.174;2023-11-21T11:18:57;19.10;;;14.47;;
15699;SDS011;7950;42.744;23.174;2023-11-21T11:21:28;23.57;;;15.60;;
15699;SDS011;7950;42.744;23.174;2023-11-21T11:27:21;20.33;;;13.90;;
15699;SDS011;7950;42.744;23.174;2023-11-21T11:30:05;16.63;;;12.93;;
15699;SDS011;7950;42.744;23.174;2023-11-21T11:32:47;23.27;;;14.87;;
15699;SDS011;7950;42.744;23.174;2023-11-21T11:35:29;17.53;;;12.67;;
15699;SDS011;7950;42.744;23.174;2023-11-21T11:38:06;19.53;;;14.60;;
15699;SDS011;7950;42.744;23.174;2023-11-21T11:40:38;20.20;;;14.17;;
15699;SDS011;7950;42.744;23.174;2023-11-21T11:43:08;20.40;;;13.73;;
15699;SDS011;7950;42.744;23.174;2023-11-21T11:45:38;17.33;;;11.00;;
15699;SDS011;7950;42.744;23.174;2023-11-21T11:48:10;17.20;;;12.27;;
15699;SDS011;7950;42.744;23.174;2023-11-21T11:50:43;15.53;;;11.27;;
15699;SDS011;7950;42.744;23.174;2023-11-21T11:53:37;16.70;;;11.60;;
15699;SDS011;7950;42.744;23.174;2023-11-21T11:56:21;16.63;;;11.60;;
15699;SDS011;7950;42.744;23.174;2023-11-21T11:58:53;16.87;;;12.30;;
15699;SDS011;7950;42.744;23.174;2023-11-21T12:01:24;15.73;;;11.20;;
15699;SDS011;7950;42.744;23.174;2023-11-21T12:07:02;15.67;;;10.50;;
15699;SDS011;7950;42.744;23.174;2023-11-21T12:09:33;16.63;;;11.33;;
15699;SDS011;7950;42.744;23.174;2023-11-21T12:12:04;15.03;;;10.80;;
15699;SDS011;7950;42.744;23.174;2023-11-21T12:14:36;16.90;;;13.57;;
15699;SDS011;7950;42.744;23.174;2023-11-21T12:17:05;20.23;;;10.93;;
15699;SDS011;7950;42.744;23.174;2023-11-21T12:19:35;14.17;;;10.77;;
15699;SDS011;7950;42.744;23.174;2023-11-21T12:22:06;14.70;;;11.07;;
15699;SDS011;7950;42.744;23.174;2023-11-21T12:24:34;13.97;;;11.17;;
15699;SDS011;7950;42.744;23.174;2023-11-21T12:27:03;15.43;;;10.97;;
15699;SDS011;7950;42.744;23.174;2023-11-21T12:29:32;13.40;;;10.50;;
15699;SDS011;7950;42.744;23.174;2023-11-21T12:32:01;17.50;;;15.13;;
15699;SDS011;7950;42.744;23.174;2023-11-21T12:34:30;16.70;;;12.90;;
15699;SDS011;7950;42.744;23.174;2023-11-21T12:36:59;26.63;;;18.47;;
15699;SDS011;7950;42.744;23.174;2023-11-21T12:39:29;16.87;;;12.53;;
15699;SDS011;7950;42.744;23.174;2023-11-21T12:41:58;16.37;;;11.77;;
15699;SDS011;7950;42.744;23.174;2023-11-21T12:44:26;19.40;;;14.93;;
15699;SDS011;7950;42.744;23.174;2023-11-21T12:46:55;19.47;;;14.67;;
15699;SDS011;7950;42.744;23.174;2023-11-21T12:49:24;17.40;;;12.70;;
15699;SDS011;7950;42.744;23.174;2023-11-21T12:51:52;19.70;;;13.00;;
15699;SDS011;7950;42.744;23.174;2023-11-21T12:54:21;18.37;;;13.43;;
15699;SDS011;7950;42.744;23.174;2023-11-21T12:56:52;18.13;;;12.27;;
15699;SDS011;7950;42.744;23.174;2023-11-21T12:59:21;20.63;;;13.30;;
15699;SDS011;7950;42.744;23.174;2023-11-21T13:01:50;18.03;;;11.97;;
15699;SDS011;7950;42.744;23.174;2023-11-21T13:04:18;16.77;;;12.67;;
15699;SDS011;7950;42.744;23.174;2023-11-21T13:06:47;20.27;;;12.97;;
15699;SDS011;7950;42.744;23.174;2023-11-21T13:09:16;17.03;;;12.43;;
15699;SDS011;7950;42.744;23.174;2023-11-21T13:11:48;22.57;;;13.30;;
15699;SDS011;7950;42.744;23.174;2023-11-21T13:14:19;18.00;;;12.40;;
15699;SDS011;7950;42.744;23.174;2023-11-21T13:16:56;18.83;;;12.30;;
15699;SDS011;7950;42.744;23.174;2023-11-21T13:19:25;16.93;;;11.07;;
15699;SDS011;7950;42.744;23.174;2023-11-21T13:21:57;19.77;;;12.83;;
15699;SDS011;7950;42.744;23.174;2023-11-21T13:24:28;26.33;;;17.93;;
15699;SDS011;7950;42.744;23.174;2023-11-21T13:26:57;25.67;;;17.70;;
15699;SDS011;7950;42.744;23.174;2023-11-21T13:29:27;25.77;;;18.73;;
15699;SDS011;7950;42.744;23.174;2023-11-21T13:31:56;22.90;;;15.83;;
15699;SDS011;7950;42.744;23.174;2023-11-21T13:34:26;22.07;;;14.37;;
15699;SDS011;7950;42.744;23.174;2023-11-21T13:36:59;19.93;;;13.40;;
15699;SDS011;7950;42.744;23.174;2023-11-21T13:39:30;17.20;;;12.27;;
15699;SDS011;7950;42.744;23.174;2023-11-21T13:41:59;27.67;;;15.43;;
15699;SDS011;7950;42.744;23.174;2023-11-21T13:44:31;19.60;;;13.43;;
15699;SDS011;7950;42.744;23.174;2023-11-21T13:47:04;19.20;;;11.60;;
15699;SDS011;7950;42.744;23.174;2023-11-21T13:49:33;19.80;;;12.03;;
15699;SDS011;7950;42.744;23.174;2023-11-21T13:52:07;16.20;;;10.77;;
15699;SDS011;7950;42.744;23.174;2023-11-21T13:54:42;17.67;;;11.47;;
15699;SDS011;7950;42.744;23.174;2023-11-21T13:57:10;18.07;;;13.07;;
15699;SDS011;7950;42.744;23.174;2023-11-21T13:59:41;19.70;;;12.43;;
15699;SDS011;7950;42.744;23.174;2023-11-21T14:02:10;22.00;;;12.33;;
15699;SDS011;7950;42.744;23.174;2023-11-21T14:04:44;19.13;;;11.73;;
15699;SDS011;7950;42.744;23.174;2023-11-21T14:07:23;19.07;;;11.37;;
15699;SDS011;7950;42.744;23.174;2023-11-21T14:10:02;18.07;;;11.90;;
15699;SDS011;7950;42.744;23.174;2023-11-21T14:12:34;16.10;;;11.93;;
15699;SDS011;7950;42.744;23.174;2023-11-21T14:15:07;19.63;;;13.77;;
15699;SDS011;7950;42.744;23.174;2023-11-21T14:17:38;17.03;;;13.00;;
15699;SDS011;7950;42.744;23.174;2023-11-21T14:20:09;17.30;;;13.00;;
15699;SDS011;7950;42.744;23.174;2023-11-21T14:22:43;18.43;;;12.27;;
15699;SDS011;7950;42.744;23.174;2023-11-21T14:25:13;21.33;;;12.87;;
15699;SDS011;7950;42.744;23.174;2023-11-21T14:27:44;15.40;;;11.47;;
15699;SDS011;7950;42.744;23.174;2023-11-21T14:30:14;17.20;;;12.60;;
15699;SDS011;7950;42.744;23.174;2023-11-21T14:32:45;19.70;;;13.07;;
15699;SDS011;7950;42.744;23.174;2023-11-21T14:35:15;20.30;;;13.23;;
15699;SDS011;7950;42.744;23.174;2023-11-21T14:37:44;40.30;;;25.40;;
15699;SDS011;7950;42.744;23.174;2023-11-21T14:40:13;34.70;;;21.63;;
15699;SDS011;7950;42.744;23.174;2023-11-21T14:42:48;36.00;;;23.03;;
15699;SDS011;7950;42.744;23.174;2023-11-21T14:45:20;20.37;;;14.70;;
15699;SDS011;7950;42.744;23.174;2023-11-21T14:47:52;24.17;;;16.90;;
15699;SDS011;7950;42.744;23.174;2023-11-21T14:50:32;25.57;;;17.67;;
15699;SDS011;7950;42.744;23.174;2023-11-21T14:53:36;23.73;;;18.67;;
15699;SDS011;7950;42.744;23.174;2023-11-21T14:56:20;29.57;;;18.97;;